Time;durP1;ratioP1;P1;durP2;ratioP2;P2;SDS_P1;SDS_P2;PMS_P1;PMS_P2;Temp;Humidity;BMP_temperature;BMP_pressure;BME280_temperature;BME280_humidity;BME280_pressure;Samples;Min_cycle;Max_cycle;Signal;HPM_P1;HPM_P2
2022/03/23 00:00:22;;;;;;;93.55;27.25;;;;;;;;;;4992200;28;20038;-74
2022/03/23 00:02:48;;;;;;;88.77;30.60;;;;;;;;;;4984778;28;20030;-74
2022/03/23 00:05:13;;;;;;;90.25;27.38;;;;;;;;;;4985660;28;20268;-74
2022/03/23 00:07:38;;;;;;;84.90;27.98;;;;;;;;;;4984383;28;20069;-74
2022/03/23 00:10:04;;;;;;;81.13;27.83;;;;;;;;;;4984943;28;20267;-74
2022/03/23 00:12:29;;;;;;;83.97;27.42;;;;;;;;;;4982737;28;20355;-74
2022/03/23 00:14:54;;;;;;;76.57;25.40;;;;;;;;;;4990619;28;20081;-74
2022/03/23 00:17:19;;;;;;;71.73;24.70;;;;;;;;;;4987429;28;20034;-74
2022/03/23 00:19:45;;;;;;;61.42;21.15;;;;;;;;;;4992350;28;20275;-75
2022/03/23 00:22:11;;;;;;;71.85;23.55;;;;;;;;;;4986851;28;20073;-74
2022/03/23 00:24:36;;;;;;;89.50;28.10;;;;;;;;;;4986874;28;20026;-74
2022/03/23 00:27:01;;;;;;;87.53;28.90;;;;;;;;;;4989946;28;20452;-74
2022/03/23 00:29:26;;;;;;;81.30;28.52;;;;;;;;;;4989341;28;20028;-74
2022/03/23 00:31:51;;;;;;;74.50;26.67;;;;;;;;;;4988637;28;20053;-74
2022/03/23 00:34:17;;;;;;;75.72;24.33;;;;;;;;;;4984730;28;20032;-74
2022/03/23 00:36:42;;;;;;;82.00;27.03;;;;;;;;;;4986535;28;20683;-74
2022/03/23 00:39:08;;;;;;;88.40;26.88;;;;;;;;;;4993045;28;20262;-74
2022/03/23 00:41:33;;;;;;;93.80;28.40;;;;;;;;;;4990932;28;20444;-74
2022/03/23 00:43:58;;;;;;;92.25;30.00;;;;;;;;;;4992418;28;20041;-74
2022/03/23 00:46:24;;;;;;;96.60;33.58;;;;;;;;;;4993116;28;20439;-74
2022/03/23 00:48:49;;;;;;;88.82;30.23;;;;;;;;;;4990620;28;20014;-74
2022/03/23 00:51:14;;;;;;;95.03;32.67;;;;;;;;;;4991115;28;20133;-74
2022/03/23 00:53:40;;;;;;;103.80;32.03;;;;;;;;;;4987926;28;20601;-74
2022/03/23 00:56:06;;;;;;;89.95;28.95;;;;;;;;;;4982593;28;20272;-74
2022/03/23 00:58:31;;;;;;;113.80;34.15;;;;;;;;;;4992523;28;20137;-74
2022/03/23 01:00:56;;;;;;;87.33;29.97;;;;;;;;;;4985294;28;20070;-74
2022/03/23 01:03:21;;;;;;;86.82;27.80;;;;;;;;;;4991419;28;20267;-74
2022/03/23 01:05:46;;;;;;;92.03;30.38;;;;;;;;;;4987891;28;20379;-74
2022/03/23 01:08:12;;;;;;;82.18;27.52;;;;;;;;;;4984225;28;20365;-74
2022/03/23 01:10:37;;;;;;;84.80;29.08;;;;;;;;;;4989228;28;20264;-74
2022/03/23 01:13:02;;;;;;;85.18;28.58;;;;;;;;;;4985720;28;20392;-74
2022/03/23 01:15:29;;;;;;;87.18;29.63;;;;;;;;;;4984938;28;20057;-73
2022/03/23 01:17:54;;;;;;;83.60;30.60;;;;;;;;;;4989408;28;20030;-74
2022/03/23 01:20:19;;;;;;;70.15;24.52;;;;;;;;;;4995315;28;20037;-74
2022/03/23 01:22:44;;;;;;;75.38;26.27;;;;;;;;;;4987602;28;20744;-74
2022/03/23 01:25:10;;;;;;;75.07;25.42;;;;;;;;;;4982274;28;20037;-74
2022/03/23 01:27:36;;;;;;;68.18;25.02;;;;;;;;;;4986975;28;20022;-73
2022/03/23 01:30:04;;;;;;;96.72;27.95;;;;;;;;;;4987771;28;20109;-74
2022/03/23 01:32:29;;;;;;;92.25;28.73;;;;;;;;;;4988495;28;20046;-74
2022/03/23 01:34:54;;;;;;;99.63;29.75;;;;;;;;;;4982641;28;20146;-73
2022/03/23 01:37:19;;;;;;;88.63;27.10;;;;;;;;;;4993550;28;20030;-74
2022/03/23 01:39:45;;;;;;;101.97;28.83;;;;;;;;;;4985157;28;20268;-74
2022/03/23 01:42:10;;;;;;;95.65;31.50;;;;;;;;;;4981632;28;20411;-74
2022/03/23 01:44:35;;;;;;;88.70;30.15;;;;;;;;;;4984204;28;20283;-74
2022/03/23 01:47:10;;;;;;;94.40;28.55;;;;;;;;;;4990843;28;20739;-74
2022/03/23 01:49:37;;;;;;;78.18;26.90;;;;;;;;;;4979736;28;20026;-74
2022/03/23 01:52:04;;;;;;;97.10;28.52;;;;;;;;;;4989459;28;20416;-74
2022/03/23 01:54:29;;;;;;;71.18;25.13;;;;;;;;;;4986023;28;20023;-74
2022/03/23 01:56:56;;;;;;;77.93;26.23;;;;;;;;;;4986872;28;20435;-74
2022/03/23 01:59:21;;;;;;;100.05;31.70;;;;;;;;;;4983084;28;20030;-74
2022/03/23 02:01:46;;;;;;;83.15;28.70;;;;;;;;;;4986290;28;20050;-74
2022/03/23 02:04:13;;;;;;;92.28;30.67;;;;;;;;;;4985203;28;20080;-74
2022/03/23 02:06:38;;;;;;;99.10;31.55;;;;;;;;;;4984164;28;20019;-74
2022/03/23 02:09:03;;;;;;;87.28;28.88;;;;;;;;;;4985012;28;20024;-74
2022/03/23 02:11:29;;;;;;;101.25;31.58;;;;;;;;;;4987404;28;20045;-74
2022/03/23 02:13:54;;;;;;;100.05;31.63;;;;;;;;;;4987201;28;20030;-74
2022/03/23 02:16:19;;;;;;;79.50;27.58;;;;;;;;;;4985662;28;20133;-74
2022/03/23 02:18:45;;;;;;;109.78;32.42;;;;;;;;;;4985314;28;20026;-74
2022/03/23 02:21:13;;;;;;;105.53;33.15;;;;;;;;;;4984299;28;20060;-74
2022/03/23 02:23:38;;;;;;;111.82;35.90;;;;;;;;;;4987761;28;20047;-74
2022/03/23 02:26:03;;;;;;;101.93;33.25;;;;;;;;;;4986457;28;20030;-74
2022/03/23 02:28:28;;;;;;;112.20;33.60;;;;;;;;;;4991543;28;20268;-74
2022/03/23 02:30:54;;;;;;;100.50;32.70;;;;;;;;;;4987170;28;20022;-74
2022/03/23 02:33:22;;;;;;;86.43;30.67;;;;;;;;;;4980215;28;20797;-74
2022/03/23 02:35:50;;;;;;;106.15;33.80;;;;;;;;;;4980735;28;20041;-73
2022/03/23 02:38:16;;;;;;;97.07;32.25;;;;;;;;;;4982035;28;20113;-74
2022/03/23 02:40:42;;;;;;;91.82;30.40;;;;;;;;;;4983229;28;20076;-74
2022/03/23 02:43:07;;;;;;;72.57;24.58;;;;;;;;;;4984503;28;20049;-74
2022/03/23 02:45:32;;;;;;;83.38;26.13;;;;;;;;;;4982030;28;20566;-74
2022/03/23 02:47:57;;;;;;;109.97;32.63;;;;;;;;;;4986222;28;20018;-74
2022/03/23 02:50:24;;;;;;;91.88;29.65;;;;;;;;;;4982865;28;20128;-74
2022/03/23 03:03:54;;;;;;;100.57;32.95;;;;;;;;;;4984868;28;20068;-73
2022/03/23 03:06:19;;;;;;;108.05;32.67;;;;;;;;;;4982612;28;20030;-74
2022/03/23 03:08:47;;;;;;;97.60;30.25;;;;;;;;;;4982650;28;20022;-74
2022/03/23 03:11:14;;;;;;;80.30;25.80;;;;;;;;;;4982493;28;20266;-73
2022/03/23 03:13:40;;;;;;;85.07;27.25;;;;;;;;;;4984104;28;20042;-74
2022/03/23 03:16:05;;;;;;;102.10;30.23;;;;;;;;;;4981330;28;20030;-74
2022/03/23 03:18:33;;;;;;;103.57;30.40;;;;;;;;;;4986840;28;20033;-73
2022/03/23 03:21:06;;;;;;;103.25;31.58;;;;;;;;;;4983878;28;20072;-73
2022/03/23 03:23:33;;;;;;;109.65;33.90;;;;;;;;;;4985610;28;20472;-74
2022/03/23 03:25:58;;;;;;;95.60;31.42;;;;;;;;;;4986979;28;20082;-74
2022/03/23 03:28:23;;;;;;;88.75;29.95;;;;;;;;;;4980277;28;20475;-74
2022/03/23 03:30:49;;;;;;;97.47;30.17;;;;;;;;;;4986980;28;20065;-74
2022/03/23 03:33:14;;;;;;;92.03;31.15;;;;;;;;;;4978392;28;20298;-73
2022/03/23 03:35:39;;;;;;;100.40;29.87;;;;;;;;;;4982302;28;20526;-74
2022/03/23 03:38:04;;;;;;;97.47;31.92;;;;;;;;;;4968954;28;20323;-74
2022/03/23 03:40:29;;;;;;;98.45;30.08;;;;;;;;;;4978880;28;20425;-74
2022/03/23 03:42:55;;;;;;;112.80;34.67;;;;;;;;;;4983798;28;20260;-74
2022/03/23 03:45:20;;;;;;;112.05;35.13;;;;;;;;;;4983307;28;20117;-74
2022/03/23 03:47:45;;;;;;;122.40;35.60;;;;;;;;;;4978481;28;20123;-73
2022/03/23 03:50:11;;;;;;;126.00;36.00;;;;;;;;;;4994765;28;20073;-74
2022/03/23 03:52:36;;;;;;;108.07;33.15;;;;;;;;;;4988044;28;20272;-74
2022/03/23 03:55:01;;;;;;;108.32;34.33;;;;;;;;;;4986765;28;20053;-74
2022/03/23 03:57:27;;;;;;;114.28;32.97;;;;;;;;;;4988304;28;20458;-74
2022/03/23 03:59:52;;;;;;;124.13;35.30;;;;;;;;;;4986056;28;20088;-74
2022/03/23 04:02:19;;;;;;;128.82;38.38;;;;;;;;;;4991635;28;20259;-74
2022/03/23 04:04:44;;;;;;;118.72;33.03;;;;;;;;;;4980641;28;20477;-74
2022/03/23 04:07:10;;;;;;;105.85;32.60;;;;;;;;;;4983042;28;20475;-74
2022/03/23 04:09:35;;;;;;;91.43;30.60;;;;;;;;;;4991015;28;20267;-74
2022/03/23 04:12:00;;;;;;;94.77;30.23;;;;;;;;;;4998193;28;20023;-74
2022/03/23 04:14:25;;;;;;;87.88;28.55;;;;;;;;;;4983572;28;20268;-74
2022/03/23 04:16:51;;;;;;;78.82;26.10;;;;;;;;;;4976253;28;20010;-74
2022/03/23 04:19:16;;;;;;;89.78;29.23;;;;;;;;;;4991815;28;20038;-74
2022/03/23 04:21:41;;;;;;;100.50;32.63;;;;;;;;;;4986691;28;20472;-74
2022/03/23 04:24:07;;;;;;;101.95;32.35;;;;;;;;;;4988092;28;20359;-74
2022/03/23 04:26:32;;;;;;;92.90;30.63;;;;;;;;;;5004707;28;20022;-74
2022/03/23 04:28:57;;;;;;;104.32;31.55;;;;;;;;;;4990186;28;20453;-74
2022/03/23 04:31:22;;;;;;;108.30;33.50;;;;;;;;;;4988351;28;20309;-74
2022/03/23 04:33:49;;;;;;;108.38;31.38;;;;;;;;;;4987508;28;20361;-73
2022/03/23 04:36:14;;;;;;;119.22;36.45;;;;;;;;;;4986833;28;20269;-73
2022/03/23 04:38:39;;;;;;;102.07;33.67;;;;;;;;;;4992500;28;20133;-73
2022/03/23 04:41:05;;;;;;;110.93;32.60;;;;;;;;;;4989519;28;20121;-73
2022/03/23 04:43:30;;;;;;;120.00;37.90;;;;;;;;;;5003793;28;20030;-73
2022/03/23 04:45:56;;;;;;;111.78;34.40;;;;;;;;;;4990302;28;20018;-73
2022/03/23 04:48:21;;;;;;;107.43;33.75;;;;;;;;;;4989856;28;20113;-74
2022/03/23 04:50:48;;;;;;;121.75;34.97;;;;;;;;;;4989365;28;20749;-73
2022/03/23 04:53:14;;;;;;;107.38;35.58;;;;;;;;;;4988954;28;20018;-73
2022/03/23 04:55:39;;;;;;;113.28;33.35;;;;;;;;;;4990269;28;20029;-73
2022/03/23 04:58:04;;;;;;;125.22;36.67;;;;;;;;;;4990943;28;20049;-74
2022/03/23 05:00:29;;;;;;;131.47;36.73;;;;;;;;;;4988307;28;20026;-73
2022/03/23 05:02:54;;;;;;;125.30;35.85;;;;;;;;;;4989160;28;20351;-73
2022/03/23 05:05:20;;;;;;;110.82;34.85;;;;;;;;;;4984890;28;20315;-73
2022/03/23 05:07:45;;;;;;;118.68;34.95;;;;;;;;;;4986439;28;20483;-73
2022/03/23 05:10:12;;;;;;;122.78;38.28;;;;;;;;;;4987781;28;20256;-73
2022/03/23 05:12:37;;;;;;;115.68;37.50;;;;;;;;;;4990278;28;20022;-73
2022/03/23 05:15:04;;;;;;;119.70;35.95;;;;;;;;;;4983391;28;20023;-73
2022/03/23 05:17:30;;;;;;;114.38;34.33;;;;;;;;;;4995160;28;20035;-74
2022/03/23 05:19:55;;;;;;;114.82;33.30;;;;;;;;;;4983243;28;20077;-73
2022/03/23 05:22:21;;;;;;;113.80;34.17;;;;;;;;;;4984392;28;20030;-73
2022/03/23 05:24:46;;;;;;;104.78;32.30;;;;;;;;;;4981888;28;20022;-74
2022/03/23 05:27:11;;;;;;;101.18;34.45;;;;;;;;;;4990056;28;20024;-74
2022/03/23 05:29:37;;;;;;;117.88;34.53;;;;;;;;;;4982487;28;20029;-73
2022/03/23 05:32:03;;;;;;;96.15;31.23;;;;;;;;;;4983674;28;20023;-74
2022/03/23 05:34:28;;;;;;;102.28;31.70;;;;;;;;;;4984867;28;20030;-73
2022/03/23 05:36:54;;;;;;;104.25;32.63;;;;;;;;;;4986256;28;20100;-73
2022/03/23 05:39:20;;;;;;;98.43;34.80;;;;;;;;;;4990432;28;20030;-73
2022/03/23 05:41:45;;;;;;;107.25;33.60;;;;;;;;;;4989399;28;20179;-73
2022/03/23 05:44:10;;;;;;;106.95;31.25;;;;;;;;;;4991175;28;20066;-73
2022/03/23 05:46:36;;;;;;;107.40;31.80;;;;;;;;;;4978077;28;20037;-73
2022/03/23 05:49:01;;;;;;;106.03;32.15;;;;;;;;;;4984492;28;20271;-73
2022/03/23 05:51:26;;;;;;;110.78;32.63;;;;;;;;;;4983863;28;20134;-74
2022/03/23 05:53:52;;;;;;;108.85;31.23;;;;;;;;;;4985108;28;20042;-73
2022/03/23 05:56:17;;;;;;;104.57;31.20;;;;;;;;;;4985382;28;20638;-73
2022/03/23 05:58:42;;;;;;;101.53;32.35;;;;;;;;;;4991916;28;20085;-74
2022/03/23 06:01:08;;;;;;;95.05;30.05;;;;;;;;;;4987673;28;20023;-74
2022/03/23 06:03:34;;;;;;;101.80;29.55;;;;;;;;;;4995382;28;20026;-73
2022/03/23 06:05:59;;;;;;;106.35;30.60;;;;;;;;;;4984172;28;20769;-74
2022/03/23 06:08:24;;;;;;;111.97;33.25;;;;;;;;;;4986825;28;20030;-74
2022/03/23 06:10:50;;;;;;;94.45;31.23;;;;;;;;;;4987006;28;20778;-74
2022/03/23 06:13:15;;;;;;;106.15;30.27;;;;;;;;;;4983928;28;20330;-74
2022/03/23 06:15:41;;;;;;;90.40;30.27;;;;;;;;;;4982807;28;20129;-75
2022/03/23 06:18:06;;;;;;;108.55;32.45;;;;;;;;;;4988917;28;20096;-74
2022/03/23 06:20:31;;;;;;;103.78;29.83;;;;;;;;;;4996713;28;20080;-74
2022/03/23 06:22:56;;;;;;;95.35;30.08;;;;;;;;;;4983195;28;20498;-74
2022/03/23 06:25:21;;;;;;;96.47;29.20;;;;;;;;;;4987356;28;20013;-74
2022/03/23 06:27:46;;;;;;;111.10;31.63;;;;;;;;;;4988497;28;20461;-73
2022/03/23 06:30:12;;;;;;;103.57;31.70;;;;;;;;;;4987175;28;20022;-74
2022/03/23 06:32:37;;;;;;;109.70;31.05;;;;;;;;;;4982349;28;20285;-73
2022/03/23 06:35:03;;;;;;;116.00;31.17;;;;;;;;;;4985529;28;20034;-73
2022/03/23 06:37:30;;;;;;;104.35;34.65;;;;;;;;;;4981747;28;20038;-73
2022/03/23 06:39:55;;;;;;;107.03;32.97;;;;;;;;;;4980554;28;20030;-71
2022/03/23 06:42:21;;;;;;;104.05;33.72;;;;;;;;;;4982143;28;20030;-73
2022/03/23 06:44:46;;;;;;;112.95;33.85;;;;;;;;;;4981227;28;20112;-74
2022/03/23 06:47:12;;;;;;;121.43;36.15;;;;;;;;;;4986403;28;20029;-74
2022/03/23 06:49:37;;;;;;;119.05;37.55;;;;;;;;;;4983818;28;20109;-72
2022/03/23 06:52:02;;;;;;;114.15;36.67;;;;;;;;;;4978178;28;20077;-73
2022/03/23 06:54:27;;;;;;;135.90;38.70;;;;;;;;;;4976545;28;20883;-74
2022/03/23 06:56:52;;;;;;;143.20;41.13;;;;;;;;;;4982689;28;20073;-72
2022/03/23 06:59:18;;;;;;;121.88;36.75;;;;;;;;;;4982777;28;20272;-73
2022/03/23 07:01:44;;;;;;;122.78;33.50;;;;;;;;;;4977977;28;20117;-73
2022/03/23 07:04:09;;;;;;;117.47;32.50;;;;;;;;;;4980528;28;20052;-73
2022/03/23 07:06:34;;;;;;;110.27;37.17;;;;;;;;;;4976344;28;20457;-73
2022/03/23 07:11:43;;;;;;;140.73;41.03;;;;;;;;;;4980197;28;20335;-72
2022/03/23 07:14:08;;;;;;;146.63;42.27;;;;;;;;;;4983273;28;20039;-73
2022/03/23 07:16:33;;;;;;;134.65;40.42;;;;;;;;;;4978300;28;20366;-72
2022/03/23 07:18:58;;;;;;;125.10;38.65;;;;;;;;;;4985414;28;20812;-73
2022/03/23 07:21:23;;;;;;;141.47;41.80;;;;;;;;;;4992700;28;20302;-72
2022/03/23 07:23:49;;;;;;;129.90;39.27;;;;;;;;;;4991595;28;20311;-73
2022/03/23 07:26:15;;;;;;;136.75;42.55;;;;;;;;;;4977842;28;20272;-73
2022/03/23 07:28:40;;;;;;;152.27;42.85;;;;;;;;;;4986691;28;20101;-73
2022/03/23 07:31:05;;;;;;;140.30;42.20;;;;;;;;;;4989152;28;20121;-73
2022/03/23 07:33:30;;;;;;;153.53;44.03;;;;;;;;;;4987320;28;20805;-74
2022/03/23 07:35:55;;;;;;;130.03;41.67;;;;;;;;;;4977694;28;20555;-73
2022/03/23 07:38:21;;;;;;;159.47;43.93;;;;;;;;;;4986577;28;20279;-74
2022/03/23 07:40:46;;;;;;;138.70;41.60;;;;;;;;;;4983640;28;20411;-72
2022/03/23 07:43:11;;;;;;;145.38;42.17;;;;;;;;;;4979685;28;20279;-73
2022/03/23 07:45:37;;;;;;;134.70;41.85;;;;;;;;;;4976065;28;20047;-73
2022/03/23 07:48:02;;;;;;;137.27;42.63;;;;;;;;;;4971950;28;20364;-73
2022/03/23 07:50:27;;;;;;;136.98;41.80;;;;;;;;;;4980167;28;20029;-75
2022/03/23 07:52:53;;;;;;;140.32;41.78;;;;;;;;;;4978365;28;20036;-74
2022/03/23 07:55:18;;;;;;;156.05;42.35;;;;;;;;;;4982841;28;20061;-73
2022/03/23 07:57:44;;;;;;;135.77;44.60;;;;;;;;;;4982289;28;20042;-74
2022/03/23 08:00:10;;;;;;;152.80;42.33;;;;;;;;;;4987055;28;20363;-74
2022/03/23 08:02:35;;;;;;;150.90;43.90;;;;;;;;;;4977184;28;20023;-73
2022/03/23 08:05:00;;;;;;;143.50;42.50;;;;;;;;;;4983661;28;20023;-73
2022/03/23 08:07:25;;;;;;;156.68;47.08;;;;;;;;;;4985457;28;20828;-73
2022/03/23 08:09:50;;;;;;;143.00;44.50;;;;;;;;;;4986324;28;20053;-73
2022/03/23 08:12:17;;;;;;;144.63;42.60;;;;;;;;;;4985514;28;20043;-73
2022/03/23 08:14:42;;;;;;;151.27;43.00;;;;;;;;;;4980336;28;20022;-74
2022/03/23 08:17:07;;;;;;;153.77;45.45;;;;;;;;;;4985511;28;20057;-74
2022/03/23 08:19:32;;;;;;;148.40;48.95;;;;;;;;;;4980938;28;20077;-74
2022/03/23 08:21:58;;;;;;;136.05;46.67;;;;;;;;;;4989267;28;20038;-75
2022/03/23 08:24:23;;;;;;;136.30;43.00;;;;;;;;;;4981570;28;20030;-75
2022/03/23 08:26:48;;;;;;;139.93;44.60;;;;;;;;;;4986195;28;20388;-74
2022/03/23 08:29:13;;;;;;;141.77;45.80;;;;;;;;;;4981123;28;20033;-74
2022/03/23 08:31:38;;;;;;;157.10;46.33;;;;;;;;;;4991338;28;20351;-75
2022/03/23 08:34:07;;;;;;;142.77;47.17;;;;;;;;;;4984487;28;20037;-72
2022/03/23 08:36:32;;;;;;;146.07;46.40;;;;;;;;;;4985176;28;20690;-74
2022/03/23 08:38:58;;;;;;;151.73;47.05;;;;;;;;;;4988767;28;20034;-74
2022/03/23 08:41:23;;;;;;;144.98;44.30;;;;;;;;;;4984140;28;20496;-74
2022/03/23 08:43:48;;;;;;;175.93;48.90;;;;;;;;;;4987213;28;20076;-73
2022/03/23 08:46:13;;;;;;;155.67;49.03;;;;;;;;;;4986784;28;20630;-72
2022/03/23 08:48:39;;;;;;;149.20;49.10;;;;;;;;;;4986776;28;20037;-71
2022/03/23 08:51:04;;;;;;;161.45;53.42;;;;;;;;;;4985575;28;20034;-74
2022/03/23 08:53:29;;;;;;;144.02;48.25;;;;;;;;;;4986873;28;20058;-74
2022/03/23 08:55:55;;;;;;;137.73;44.03;;;;;;;;;;4986855;28;20037;-71
2022/03/23 08:58:20;;;;;;;140.87;47.90;;;;;;;;;;4986562;28;20044;-77
2022/03/23 09:00:45;;;;;;;155.40;54.13;;;;;;;;;;4982159;28;20362;-76
2022/03/23 09:03:10;;;;;;;158.37;51.27;;;;;;;;;;4981546;28;20149;-71
2022/03/23 09:05:35;;;;;;;139.40;47.20;;;;;;;;;;4986599;28;20294;-72
2022/03/23 09:08:01;;;;;;;156.52;48.25;;;;;;;;;;4980961;28;20076;-72
2022/03/23 09:10:27;;;;;;;131.60;45.05;;;;;;;;;;4983759;28;20081;-73
2022/03/23 09:12:52;;;;;;;146.52;48.78;;;;;;;;;;4984761;28;20058;-71
2022/03/23 09:15:17;;;;;;;145.97;49.37;;;;;;;;;;4972411;28;20065;-74
2022/03/23 09:17:43;;;;;;;150.75;49.63;;;;;;;;;;4991230;28;20064;-73
2022/03/23 09:20:10;;;;;;;153.45;49.10;;;;;;;;;;4982803;28;20026;-72
2022/03/23 09:22:35;;;;;;;159.75;51.13;;;;;;;;;;4990117;28;20152;-75
2022/03/23 09:25:03;;;;;;;152.52;48.53;;;;;;;;;;4982929;28;20040;-73
2022/03/23 09:27:29;;;;;;;153.93;54.50;;;;;;;;;;4981242;28;20028;-75
2022/03/23 09:29:54;;;;;;;128.13;46.00;;;;;;;;;;4983296;28;20014;-72
2022/03/23 09:32:19;;;;;;;152.87;49.70;;;;;;;;;;4985984;28;20459;-71
2022/03/23 09:34:45;;;;;;;142.00;52.58;;;;;;;;;;4981612;28;20322;-71
2022/03/23 09:39:54;;;;;;;137.93;47.72;;;;;;;;;;4983834;28;20495;-71
2022/03/23 09:42:21;;;;;;;140.15;45.58;;;;;;;;;;4986730;28;20121;-72
2022/03/23 09:44:47;;;;;;;143.73;50.42;;;;;;;;;;4974776;28;20024;-72
2022/03/23 09:47:12;;;;;;;139.90;49.15;;;;;;;;;;4973975;28;20452;-71
2022/03/23 09:49:37;;;;;;;141.63;52.15;;;;;;;;;;4988942;28;20025;-72
2022/03/23 09:52:04;;;;;;;148.57;49.13;;;;;;;;;;4982424;28;20495;-72
2022/03/23 09:54:29;;;;;;;127.82;45.17;;;;;;;;;;4985829;28;20061;-72
2022/03/23 09:56:54;;;;;;;133.23;45.50;;;;;;;;;;4984568;28;20022;-71
2022/03/23 09:59:20;;;;;;;149.82;47.75;;;;;;;;;;4988083;28;20396;-71
2022/03/23 10:01:45;;;;;;;131.88;47.53;;;;;;;;;;4983939;28;20025;-71
2022/03/23 10:04:14;;;;;;;138.18;47.30;;;;;;;;;;4984722;28;20033;-71
2022/03/23 10:06:58;;;;;;;145.70;49.83;;;;;;;;;;4979784;28;20148;-71
2022/03/23 10:09:24;;;;;;;;;;;;;;;;;;4985086;28;20383;-71
2022/03/23 10:12:07;;;;;;;143.27;47.83;;;;;;;;;;4989147;28;19913;-71
2022/03/23 10:14:51;;;;;;;135.10;44.92;;;;;;;;;;4986827;28;20357;-71
2022/03/23 10:17:35;;;;;;;145.05;47.67;;;;;;;;;;4983710;28;20030;-71
2022/03/23 10:20:01;;;;;;;134.15;46.38;;;;;;;;;;4988509;28;20057;-71
2022/03/23 10:22:27;;;;;;;143.63;48.33;;;;;;;;;;4989523;28;20116;-72
2022/03/23 10:24:52;;;;;;;149.20;51.17;;;;;;;;;;4979897;28;20279;-73
2022/03/23 10:27:17;;;;;;;137.93;48.70;;;;;;;;;;4979789;28;20955;-73
2022/03/23 10:29:47;;;;;;;140.80;48.63;;;;;;;;;;4985304;28;20026;-72
2022/03/23 10:32:13;;;;;;;151.50;52.67;;;;;;;;;;4981416;28;20598;-72
2022/03/23 10:34:38;;;;;;;157.75;51.85;;;;;;;;;;4983193;28;20049;-71
2022/03/23 10:37:04;;;;;;;152.50;50.43;;;;;;;;;;4985240;28;20034;-71
2022/03/23 10:39:29;;;;;;;147.60;50.22;;;;;;;;;;4980475;28;20022;-71
2022/03/23 10:42:07;;;;;;;152.52;51.63;;;;;;;;;;4980465;28;20376;-71
2022/03/23 10:44:32;;;;;;;144.10;52.25;;;;;;;;;;4985267;28;20133;-70
2022/03/23 10:46:58;;;;;;;147.43;53.63;;;;;;;;;;4985896;28;20026;-70
2022/03/23 10:49:31;;;;;;;155.57;52.95;;;;;;;;;;4984035;28;20282;-71
2022/03/23 10:52:06;;;;;;;140.90;52.17;;;;;;;;;;4984865;28;20034;-70
2022/03/23 10:54:31;;;;;;;146.85;54.78;;;;;;;;;;4981564;28;20443;-71
2022/03/23 10:56:56;;;;;;;152.02;50.75;;;;;;;;;;4984913;28;20345;-71
2022/03/23 10:59:22;;;;;;;144.07;53.10;;;;;;;;;;4987133;28;20037;-72
2022/03/23 11:01:55;;;;;;;144.43;52.60;;;;;;;;;;4981911;28;20040;-70
2022/03/23 11:04:20;;;;;;;144.18;52.42;;;;;;;;;;4978733;28;20032;-70
2022/03/23 11:06:45;;;;;;;131.73;50.50;;;;;;;;;;4984029;28;20038;-71
2022/03/23 11:15:46;;;;;;;152.90;52.80;;;;;;;;;;4980149;28;20065;-70
2022/03/23 11:17:05;;;;;;;141.70;51.22;;;;;;;;;;4984276;28;20030;-70
2022/03/23 11:19:31;;;;;;;136.63;53.47;;;;;;;;;;4985999;28;20105;-69
2022/03/23 11:22:09;;;;;;;159.07;53.95;;;;;;;;;;4984767;28;20057;-69
2022/03/23 11:24:36;;;;;;;158.15;58.00;;;;;;;;;;4977667;28;20460;-71
2022/03/23 11:27:03;;;;;;;149.57;59.67;;;;;;;;;;4984259;28;20112;-71
2022/03/23 11:29:30;;;;;;;148.10;53.50;;;;;;;;;;4987938;28;20122;-71
2022/03/23 11:31:55;;;;;;;152.88;57.53;;;;;;;;;;4984919;28;20030;-72
2022/03/23 11:34:22;;;;;;;142.13;52.53;;;;;;;;;;4983317;28;20032;-71
2022/03/23 11:36:48;;;;;;;139.30;52.25;;;;;;;;;;4984530;28;20156;-71
2022/03/23 11:39:13;;;;;;;138.90;50.75;;;;;;;;;;4989824;28;20114;-71
2022/03/23 11:41:38;;;;;;;134.33;50.47;;;;;;;;;;4981118;28;20039;-70
2022/03/23 11:44:04;;;;;;;142.50;49.58;;;;;;;;;;4982685;28;20128;-71
2022/03/23 11:46:29;;;;;;;154.07;53.73;;;;;;;;;;4983864;28;20027;-70
2022/03/23 11:49:13;;;;;;;140.70;53.45;;;;;;;;;;4983202;28;20022;-70
2022/03/23 11:51:56;;;;;;;145.68;57.58;;;;;;;;;;4986831;28;20516;-72
2022/03/23 11:57:44;;;;;;;142.35;49.97;;;;;;;;;;4980478;28;20037;-70
2022/03/23 12:00:18;;;;;;;121.20;47.83;;;;;;;;;;4983233;28;20160;-72
2022/03/23 12:02:44;;;;;;;127.05;52.10;;;;;;;;;;4982023;28;20081;-69
2022/03/23 12:05:35;;;;;;;130.07;48.72;;;;;;;;;;4987028;28;20025;-70
2022/03/23 12:08:00;;;;;;;131.93;50.40;;;;;;;;;;4985304;28;20382;-70
2022/03/23 12:10:28;;;;;;;125.28;47.63;;;;;;;;;;4985001;28;20046;-71
2022/03/23 12:12:54;;;;;;;124.43;47.83;;;;;;;;;;4988099;28;20076;-70
2022/03/23 12:15:25;;;;;;;131.00;48.28;;;;;;;;;;4996235;28;20030;-71
2022/03/23 12:17:56;;;;;;;122.82;49.72;;;;;;;;;;4985343;28;20029;-71
2022/03/23 12:20:28;;;;;;;138.88;50.58;;;;;;;;;;4990388;28;20049;-71
2022/03/23 12:23:14;;;;;;;133.65;49.78;;;;;;;;;;4986328;28;20432;-71
2022/03/23 12:25:48;;;;;;;130.38;49.35;;;;;;;;;;4982483;28;20732;-73
2022/03/23 12:28:18;;;;;;;136.20;45.75;;;;;;;;;;4991827;28;20019;-71
2022/03/23 12:30:59;;;;;;;136.68;47.55;;;;;;;;;;4986219;28;20075;-74
2022/03/23 12:33:26;;;;;;;134.88;47.33;;;;;;;;;;4996202;28;20030;-73
2022/03/23 12:35:51;;;;;;;119.72;46.33;;;;;;;;;;4989448;28;20038;-71
2022/03/23 12:38:17;;;;;;;139.80;49.03;;;;;;;;;;4984987;28;20373;-70
2022/03/23 12:40:43;;;;;;;140.18;50.00;;;;;;;;;;4987467;28;20284;-71
2022/03/23 12:43:09;;;;;;;125.45;47.70;;;;;;;;;;4991253;28;20034;-71
2022/03/23 12:45:37;;;;;;;124.40;47.90;;;;;;;;;;5001870;28;20022;-71
2022/03/23 12:48:07;;;;;;;126.15;49.83;;;;;;;;;;4995937;28;20026;-70
2022/03/23 12:58:48;;;;;;;133.70;51.78;;;;;;;;;;4991597;28;20048;-71
2022/03/23 13:01:17;;;;;;;125.13;46.77;;;;;;;;;;4994153;28;20049;-71
2022/03/23 13:03:52;;;;;;;119.75;46.80;;;;;;;;;;4993079;28;20069;-71
2022/03/23 13:06:31;;;;;;;123.32;47.25;;;;;;;;;;4993740;28;20026;-70
2022/03/23 13:08:56;;;;;;;133.30;49.22;;;;;;;;;;4988856;28;20347;-70
2022/03/23 13:11:22;;;;;;;133.20;50.57;;;;;;;;;;5002747;28;20030;-71
2022/03/23 13:13:50;;;;;;;124.38;46.42;;;;;;;;;;4996368;28;20026;-71
2022/03/23 13:16:17;;;;;;;122.85;49.08;;;;;;;;;;4985345;28;20026;-71
2022/03/23 13:18:44;;;;;;;133.45;49.67;;;;;;;;;;4994569;28;20034;-71
2022/03/23 13:21:12;;;;;;;125.22;47.65;;;;;;;;;;4990758;28;20030;-70
2022/03/23 13:23:41;;;;;;;104.57;42.60;;;;;;;;;;4994013;28;20022;-71
2022/03/23 13:26:08;;;;;;;119.30;45.63;;;;;;;;;;4998104;28;20019;-70
2022/03/23 13:28:38;;;;;;;120.97;51.45;;;;;;;;;;4998010;28;20019;-71
2022/03/23 13:31:04;;;;;;;122.68;48.42;;;;;;;;;;4988977;28;20026;-70
2022/03/23 13:33:46;;;;;;;113.55;47.60;;;;;;;;;;4985585;28;20453;-70
2022/03/23 13:36:14;;;;;;;95.70;42.17;;;;;;;;;;4981335;28;20600;-71
2022/03/23 13:38:41;;;;;;;108.82;44.08;;;;;;;;;;4996558;28;20025;-70
2022/03/23 13:43:52;;;;;;;93.72;39.00;;;;;;;;;;4983995;28;20025;-71
2022/03/23 13:46:18;;;;;;;110.85;40.70;;;;;;;;;;4988161;28;20034;-71
2022/03/23 13:48:43;;;;;;;96.57;41.30;;;;;;;;;;4987505;28;20383;-71
2022/03/23 13:51:08;;;;;;;96.32;41.83;;;;;;;;;;4983236;28;20472;-71
2022/03/23 13:53:34;;;;;;;86.60;38.47;;;;;;;;;;4984393;28;20038;-74
2022/03/23 13:56:00;;;;;;;82.88;36.90;;;;;;;;;;4984523;28;20072;-72
2022/03/23 13:58:26;;;;;;;104.30;42.23;;;;;;;;;;4984085;28;20034;-72
2022/03/23 14:00:53;;;;;;;95.40;39.88;;;;;;;;;;4985693;28;20288;-72
2022/03/23 14:03:30;;;;;;;103.05;39.38;;;;;;;;;;4986366;28;20029;-71
2022/03/23 14:06:05;;;;;;;101.70;41.50;;;;;;;;;;4982680;28;20021;-72
2022/03/23 14:08:33;;;;;;;100.88;44.20;;;;;;;;;;4980902;28;20022;-72
2022/03/23 14:10:58;;;;;;;106.40;44.53;;;;;;;;;;4983342;28;20475;-72
2022/03/23 14:13:25;;;;;;;102.68;43.42;;;;;;;;;;4981443;28;21968;-71
2022/03/23 14:15:52;;;;;;;115.78;44.53;;;;;;;;;;4979285;28;20069;-72
2022/03/23 14:18:20;;;;;;;106.80;41.35;;;;;;;;;;4982423;28;20060;-73
2022/03/23 14:20:52;;;;;;;109.20;44.33;;;;;;;;;;4982071;28;20014;-73
2022/03/23 14:23:19;;;;;;;108.22;44.03;;;;;;;;;;4983518;28;20063;-73
2022/03/23 14:25:45;;;;;;;115.53;44.15;;;;;;;;;;4983094;28;20396;-74
2022/03/23 14:28:15;;;;;;;96.10;40.90;;;;;;;;;;4985324;28;20050;-71
2022/03/23 14:30:44;;;;;;;104.40;38.67;;;;;;;;;;4986353;28;20049;-72
2022/03/23 14:33:09;;;;;;;97.88;39.85;;;;;;;;;;4983826;28;20568;-72
2022/03/23 14:35:40;;;;;;;94.38;38.50;;;;;;;;;;4990362;28;20061;-72
2022/03/23 14:38:12;;;;;;;103.10;41.30;;;;;;;;;;4987343;28;20030;-73
2022/03/23 14:40:44;;;;;;;117.18;43.92;;;;;;;;;;4987573;28;20025;-70